Time;durP1;ratioP1;P1;durP2;ratioP2;P2;SDS_P1;SDS_P2;PMS_P1;PMS_P2;Temp;Humidity;BMP_temperature;BMP_pressure;BME280_temperature;BME280_humidity;BME280_pressure;Samples;Min_cycle;Max_cycle;Signal;HPM_P1;HPM_P2
2022/05/11 00:01:01;;;;;;;4.90;4.40;;;17.70;64.90;;;;;;5046404;28;20066;-66
2022/05/11 00:03:27;;;;;;;4.90;4.50;;;17.80;65.00;;;;;;5040732;28;20074;-66
2022/05/11 00:05:53;;;;;;;5.38;4.80;;;17.70;64.80;;;;;;5046309;28;21223;-66
2022/05/11 00:08:19;;;;;;;4.93;4.43;;;17.80;64.90;;;;;;5049155;28;20059;-66
2022/05/11 00:10:45;;;;;;;6.35;5.07;;;17.80;65.00;;;;;;5051560;28;20059;-66
2022/05/11 00:13:11;;;;;;;4.97;4.47;;;17.80;64.90;;;;;;5045543;28;20112;-66
2022/05/11 00:15:37;;;;;;;5.13;4.72;;;17.80;64.80;;;;;;5042375;28;20029;-66
2022/05/11 00:18:04;;;;;;;5.30;4.80;;;17.80;64.80;;;;;;5046995;28;20037;-66
2022/05/11 00:20:30;;;;;;;5.10;4.60;;;17.80;65.00;;;;;;5045097;28;20094;-66
2022/05/11 00:22:57;;;;;;;5.07;4.63;;;17.80;64.80;;;;;;5044069;28;20422;-66
2022/05/11 00:25:25;;;;;;;7.75;4.35;;;17.80;64.90;;;;;;5047500;28;20033;-66
2022/05/11 00:27:55;;;;;;;5.00;4.50;;;17.80;64.90;;;;;;5045996;28;20051;-66
2022/05/11 00:30:22;;;;;;;5.00;4.60;;;17.80;64.90;;;;;;5044263;28;20404;-66
2022/05/11 00:32:51;;;;;;;5.18;4.68;;;17.80;64.60;;;;;;5041397;28;20037;-66
2022/05/11 00:35:16;;;;;;;6.13;4.60;;;17.90;64.60;;;;;;5038006;28;20033;-66
2022/05/11 00:37:42;;;;;;;4.82;4.35;;;17.80;64.40;;;;;;5045543;28;20058;-66
2022/05/11 00:40:08;;;;;;;5.60;4.45;;;17.90;64.40;;;;;;5050120;28;20044;-66
2022/05/11 00:42:34;;;;;;;5.13;4.65;;;17.90;64.50;;;;;;5042112;28;20036;-64
2022/05/11 00:44:59;;;;;;;6.65;4.63;;;17.90;64.30;;;;;;5048948;28;20036;-66
2022/05/11 00:47:32;;;;;;;5.13;4.55;;;17.90;64.60;;;;;;5050504;28;20568;-65
2022/05/11 00:50:03;;;;;;;5.25;4.75;;;17.90;64.80;;;;;;5045193;28;20115;-66
2022/05/11 00:52:41;;;;;;;4.97;4.57;;;17.90;64.50;;;;;;5040784;28;20037;-66
2022/05/11 00:55:22;;;;;;;5.32;4.82;;;17.90;64.80;;;;;;5047632;28;20037;-66
2022/05/11 00:58:06;;;;;;;5.20;4.80;;;17.90;64.60;;;;;;5047977;28;20041;-66
2022/05/11 01:00:32;;;;;;;4.88;4.45;;;17.90;64.40;;;;;;5046298;28;20526;-64
2022/05/11 01:03:20;;;;;;;5.20;4.70;;;17.90;64.50;;;;;;5042022;28;20130;-66
2022/05/11 01:05:47;;;;;;;5.15;4.65;;;17.90;64.50;;;;;;5045080;28;20110;-66
2022/05/11 01:08:15;;;;;;;5.70;4.97;;;17.90;64.50;;;;;;5043106;28;20504;-66
2022/05/11 01:10:42;;;;;;;5.78;5.18;;;17.90;64.50;;;;;;5047137;28;20039;-67
2022/05/11 01:13:10;;;;;;;5.55;5.03;;;17.90;64.90;;;;;;5038948;28;20029;-65
2022/05/11 01:15:37;;;;;;;5.70;5.07;;;17.90;65.10;;;;;;5045200;28;20115;-66
2022/05/11 01:18:05;;;;;;;6.05;5.40;;;17.90;65.30;;;;;;5052977;28;20083;-66
2022/05/11 01:20:33;;;;;;;5.78;5.13;;;17.80;65.30;;;;;;5052920;28;20040;-66
2022/05/11 01:23:17;;;;;;;5.40;4.90;;;17.80;65.30;;;;;;5042627;28;20060;-66
2022/05/11 01:25:43;;;;;;;7.33;5.17;;;17.80;66.20;;;;;;5049038;28;20042;-66
2022/05/11 01:28:12;;;;;;;5.93;5.30;;;17.80;65.30;;;;;;5049554;28;20032;-66
2022/05/11 01:30:45;;;;;;;7.18;5.38;;;17.80;65.50;;;;;;5047015;28;20033;-66
2022/05/11 01:33:17;;;;;;;8.25;5.85;;;17.80;65.90;;;;;;5043240;28;20170;-66
2022/05/11 01:36:13;;;;;;;6.68;5.88;;;17.80;66.00;;;;;;5049393;28;20052;-65
2022/05/11 01:38:52;;;;;;;6.35;5.75;;;17.80;66.10;;;;;;5045975;28;20021;-66
2022/05/11 01:41:25;;;;;;;6.97;5.45;;;17.80;65.90;;;;;;5043159;28;20025;-67
2022/05/11 01:43:51;;;;;;;5.88;5.38;;;17.70;65.90;;;;;;5043665;28;21214;-66
2022/05/11 01:46:18;;;;;;;6.15;5.55;;;17.70;65.50;;;;;;5046051;28;20036;-66
2022/05/11 01:48:45;;;;;;;5.57;5.07;;;17.70;65.70;;;;;;5049194;28;21026;-66
2022/05/11 01:51:12;;;;;;;5.70;5.10;;;17.70;65.70;;;;;;5049917;28;20645;-65
2022/05/11 01:53:38;;;;;;;5.70;5.20;;;17.70;65.70;;;;;;5047098;28;20033;-66
2022/05/11 01:56:04;;;;;;;6.93;5.45;;;17.70;65.70;;;;;;5052769;28;20049;-66
2022/05/11 01:58:30;;;;;;;7.70;5.63;;;17.70;65.70;;;;;;5056834;28;20371;-66
2022/05/11 02:00:55;;;;;;;6.18;5.35;;;17.70;65.70;;;;;;5043767;28;20033;-64
2022/05/11 02:03:22;;;;;;;6.85;5.38;;;17.70;65.70;;;;;;5043934;28;20033;-65
2022/05/11 02:08:43;;;;;;;;;;;17.70;66.00;;;;;;5061426;28;20078;-66
2022/05/11 02:11:11;;;;;;;5.85;5.13;;;17.70;65.50;;;;;;5051307;28;19913;-67
2022/05/11 02:13:36;;;;;;;6.78;5.40;;;17.70;65.20;;;;;;5045749;28;20128;-66
2022/05/11 02:16:02;;;;;;;6.03;5.43;;;17.70;65.50;;;;;;5046216;28;20414;-66
2022/05/11 02:18:28;;;;;;;7.25;5.55;;;17.70;65.70;;;;;;5045284;28;20488;-66
2022/05/11 02:20:54;;;;;;;7.55;6.28;;;17.60;65.70;;;;;;5052584;28;20024;-66
2022/05/11 02:23:21;;;;;;;8.02;5.75;;;17.60;65.80;;;;;;5054493;28;20036;-66
2022/05/11 02:25:48;;;;;;;5.50;4.82;;;17.60;65.90;;;;;;5054324;28;20108;-66
2022/05/11 02:28:15;;;;;;;6.75;5.72;;;17.50;65.90;;;;;;5052564;28;20082;-66
2022/05/11 02:30:43;;;;;;;6.15;5.53;;;17.50;65.90;;;;;;5051006;28;20056;-66
2022/05/11 02:33:09;;;;;;;7.50;5.68;;;17.50;65.90;;;;;;5052757;28;20112;-66
2022/05/11 02:35:36;;;;;;;6.00;5.43;;;17.50;65.90;;;;;;5053254;28;20499;-66
2022/05/11 02:38:05;;;;;;;6.22;5.63;;;17.40;66.00;;;;;;5051410;28;20396;-66
2022/05/11 02:40:37;;;;;;;6.00;5.40;;;17.40;66.30;;;;;;5049469;28;20060;-65
2022/05/11 02:43:03;;;;;;;6.18;5.40;;;17.30;66.40;;;;;;5048307;28;22653;-66
2022/05/11 02:45:33;;;;;;;6.85;5.60;;;17.30;66.20;;;;;;5050648;28;20645;-65
2022/05/11 02:48:02;;;;;;;8.80;5.60;;;17.20;66.30;;;;;;5045669;28;20060;-66
2022/05/11 02:50:31;;;;;;;5.63;5.10;;;17.20;66.50;;;;;;5046206;28;20527;-66
2022/05/11 02:52:57;;;;;;;5.90;5.40;;;17.10;66.80;;;;;;5049238;28;20087;-66
2022/05/11 02:55:22;;;;;;;6.38;5.30;;;17.00;66.90;;;;;;5049327;28;20513;-66
2022/05/11 02:57:48;;;;;;;6.05;5.45;;;17.00;66.90;;;;;;5052260;28;20036;-66
2022/05/11 03:00:17;;;;;;;5.97;4.82;;;16.90;67.10;;;;;;5049408;28;20044;-66
2022/05/11 03:02:43;;;;;;;5.82;5.32;;;16.80;67.30;;;;;;5048220;28;20033;-65
2022/05/11 03:05:11;;;;;;;5.70;5.13;;;16.90;67.40;;;;;;5060364;28;20037;-66
2022/05/11 03:07:37;;;;;;;5.60;5.10;;;16.80;67.60;;;;;;5048943;28;20044;-66
2022/05/11 03:10:03;;;;;;;7.68;5.25;;;16.80;67.70;;;;;;5048891;28;20037;-66
2022/05/11 03:12:31;;;;;;;7.53;5.28;;;16.70;67.70;;;;;;5045154;28;20119;-66
2022/05/11 03:14:57;;;;;;;5.85;5.35;;;16.70;67.80;;;;;;5049031;28;20103;-65
2022/05/11 03:17:23;;;;;;;6.35;5.30;;;16.70;67.80;;;;;;5048220;28;20448;-66
2022/05/11 03:19:49;;;;;;;5.65;4.88;;;16.60;67.90;;;;;;5052704;28;20039;-66
2022/05/11 03:22:15;;;;;;;7.13;5.30;;;16.60;68.00;;;;;;5048849;28;20029;-66
2022/05/11 03:24:40;;;;;;;5.28;4.88;;;16.60;68.10;;;;;;5053237;28;20419;-66
2022/05/11 03:27:06;;;;;;;6.90;5.40;;;16.50;68.10;;;;;;5047987;28;20392;-66
2022/05/11 03:29:32;;;;;;;7.45;5.32;;;16.50;68.10;;;;;;5049497;28;20123;-66
2022/05/11 03:34:42;;;;;;;5.70;5.15;;;16.40;68.50;;;;;;5047409;28;20071;-68
2022/05/11 03:37:11;;;;;;;5.10;4.65;;;16.30;68.50;;;;;;5043333;28;20608;-68
2022/05/11 03:39:37;;;;;;;6.10;5.50;;;16.20;68.90;;;;;;5046124;28;20029;-68
2022/05/11 03:42:05;;;;;;;6.20;5.38;;;16.20;68.80;;;;;;5042151;28;20075;-67
2022/05/11 03:44:30;;;;;;;6.28;5.57;;;16.10;69.00;;;;;;5046408;28;20058;-68
2022/05/11 03:46:56;;;;;;;5.30;4.80;;;16.10;69.10;;;;;;5042922;28;20029;-67
2022/05/11 03:49:22;;;;;;;5.55;4.80;;;16.10;69.20;;;;;;5050317;28;20419;-67
2022/05/11 03:51:49;;;;;;;5.57;5.07;;;16.00;69.20;;;;;;5047550;28;20170;-68
2022/05/11 03:54:17;;;;;;;5.35;4.85;;;16.00;69.40;;;;;;5047536;28;20412;-68
2022/05/11 03:56:43;;;;;;;5.53;5.03;;;16.00;69.40;;;;;;5043163;28;20064;-68
2022/05/11 03:59:09;;;;;;;6.22;5.38;;;15.90;69.30;;;;;;5050628;28;20492;-68
2022/05/11 04:01:35;;;;;;;6.20;5.63;;;15.90;69.30;;;;;;5049041;28;20048;-68
2022/05/11 04:04:01;;;;;;;5.55;5.05;;;15.80;69.50;;;;;;5040043;28;20033;-67
2022/05/11 04:06:27;;;;;;;6.00;5.40;;;15.80;70.60;;;;;;5042891;28;20037;-68
2022/05/11 04:08:52;;;;;;;6.07;5.07;;;15.70;69.90;;;;;;5046461;28;20118;-68
2022/05/11 04:11:19;;;;;;;5.50;5.00;;;15.70;70.00;;;;;;5045284;28;20531;-69
2022/05/11 04:13:45;;;;;;;6.80;5.35;;;15.70;70.00;;;;;;5046777;28;20040;-68
2022/05/11 04:16:11;;;;;;;5.88;5.35;;;15.70;70.40;;;;;;5049697;28;20448;-67
2022/05/11 04:18:37;;;;;;;6.30;5.18;;;15.60;70.50;;;;;;5044313;28;20037;-68
2022/05/11 04:21:03;;;;;;;6.35;5.78;;;15.60;70.60;;;;;;5050119;28;20087;-68
2022/05/11 04:23:29;;;;;;;6.60;5.85;;;15.60;70.70;;;;;;5042269;28;20044;-68
2022/05/11 04:25:56;;;;;;;7.22;6.50;;;15.60;70.90;;;;;;5049392;28;20037;-68
2022/05/11 04:28:23;;;;;;;14.68;10.20;;;15.60;70.80;;;;;;5050554;28;20525;-68
2022/05/11 04:30:48;;;;;;;15.60;11.07;;;15.60;70.70;;;;;;5045815;28;20585;-68
2022/05/11 04:33:14;;;;;;;12.23;10.02;;;15.60;70.80;;;;;;5033609;28;20036;-68
2022/05/11 04:35:40;;;;;;;12.20;9.95;;;15.60;70.90;;;;;;5042144;28;20086;-68
2022/05/11 04:38:07;;;;;;;10.98;9.15;;;15.70;70.80;;;;;;5046370;28;20098;-66
2022/05/11 04:40:34;;;;;;;10.20;9.10;;;15.70;70.80;;;;;;5045785;28;20059;-68
2022/05/11 04:43:06;;;;;;;11.32;8.75;;;15.70;70.80;;;;;;5053719;28;20029;-67
2022/05/11 04:45:31;;;;;;;11.50;8.52;;;15.70;71.40;;;;;;5050631;28;20036;-67
2022/05/11 04:47:57;;;;;;;10.55;8.85;;;15.80;71.20;;;;;;5054922;28;20056;-68
2022/05/11 04:50:22;;;;;;;9.25;8.20;;;15.80;71.40;;;;;;5054527;28;20037;-67
2022/05/11 04:52:48;;;;;;;8.48;7.47;;;15.80;71.30;;;;;;5054239;28;20037;-67
2022/05/11 04:55:14;;;;;;;7.72;7.00;;;15.80;71.30;;;;;;5053493;28;20052;-67
2022/05/11 04:57:39;;;;;;;8.45;6.80;;;15.80;71.50;;;;;;5050899;28;20041;-67
2022/05/11 05:00:09;;;;;;;10.60;6.82;;;15.80;71.80;;;;;;5052637;28;20068;-67
2022/05/11 05:02:35;;;;;;;7.70;6.43;;;15.80;71.80;;;;;;5054957;28;20615;-68
2022/05/11 05:05:01;;;;;;;8.70;6.55;;;15.80;71.80;;;;;;5050842;28;20051;-67
2022/05/11 05:07:27;;;;;;;6.75;6.07;;;15.90;72.20;;;;;;5053566;28;20065;-67
2022/05/11 05:09:53;;;;;;;6.97;5.60;;;15.90;72.50;;;;;;5053287;28;20033;-68
2022/05/11 05:12:19;;;;;;;8.38;5.75;;;15.90;72.80;;;;;;5053318;28;20599;-67
2022/05/11 05:14:45;;;;;;;9.05;6.22;;;15.90;72.80;;;;;;5050063;28;20045;-67
2022/05/11 05:17:12;;;;;;;8.23;5.93;;;16.00;73.00;;;;;;5053271;28;20131;-67
2022/05/11 05:19:42;;;;;;;8.88;6.00;;;16.00;72.80;;;;;;5052764;28;20044;-67
2022/05/11 05:22:09;;;;;;;7.78;5.85;;;16.00;73.50;;;;;;5056356;28;20508;-66
2022/05/11 05:24:35;;;;;;;10.43;5.82;;;16.10;73.40;;;;;;5056169;28;20099;-67
2022/05/11 05:27:02;;;;;;;10.40;6.63;;;16.10;73.30;;;;;;5055617;28;20088;-67
2022/05/11 05:32:13;;;;;;;8.20;5.65;;;16.20;73.50;;;;;;5057314;28;20036;-67
2022/05/11 05:34:38;;;;;;;8.27;5.68;;;16.40;73.30;;;;;;5053929;28;20040;-67
2022/05/11 05:37:04;;;;;;;7.45;5.78;;;16.50;73.30;;;;;;5056425;28;20047;-67
2022/05/11 05:39:30;;;;;;;7.47;5.38;;;16.60;73.20;;;;;;5055866;28;20515;-67
2022/05/11 05:41:55;;;;;;;9.25;5.43;;;16.70;73.60;;;;;;5061919;28;20127;-68
2022/05/11 05:44:21;;;;;;;9.77;5.35;;;16.70;73.50;;;;;;5052875;28;20039;-66
2022/05/11 05:46:47;;;;;;;6.30;5.60;;;16.90;73.10;;;;;;5047696;28;20699;-67
2022/05/11 05:49:13;;;;;;;7.18;5.18;;;16.90;72.80;;;;;;5055841;28;20059;-68
2022/05/11 05:51:40;;;;;;;6.03;5.40;;;17.10;72.70;;;;;;5051859;28;20052;-68
2022/05/11 05:54:09;;;;;;;9.55;5.50;;;17.10;72.70;;;;;;5052829;28;20029;-65
2022/05/11 05:56:34;;;;;;;5.90;5.40;;;17.30;73.10;;;;;;5054957;28;20032;-66
2022/05/11 05:59:05;;;;;;;9.32;5.78;;;17.40;72.80;;;;;;5054093;28;20097;-65
2022/05/11 06:01:32;;;;;;;10.45;5.72;;;17.40;72.40;;;;;;5056823;28;20036;-66
2022/05/11 06:03:58;;;;;;;7.03;5.10;;;17.50;72.40;;;;;;5057994;28;20123;-66
2022/05/11 06:06:24;;;;;;;7.85;5.80;;;17.60;72.60;;;;;;5057928;28;20419;-67
2022/05/11 06:08:50;;;;;;;7.05;5.38;;;17.70;72.40;;;;;;5057660;28;20041;-66
2022/05/11 06:11:16;;;;;;;10.82;5.25;;;17.80;72.30;;;;;;5057372;28;20029;-66
2022/05/11 06:13:45;;;;;;;9.80;6.13;;;17.90;72.00;;;;;;5057691;28;20055;-66
2022/05/11 06:16:14;;;;;;;10.75;6.05;;;18.00;72.00;;;;;;5054707;28;20039;-65
2022/05/11 06:18:43;;;;;;;10.48;5.28;;;18.10;72.10;;;;;;5055950;28;20029;-66
2022/05/11 06:21:10;;;;;;;7.35;4.85;;;18.20;72.10;;;;;;5058199;28;20437;-66
2022/05/11 06:23:36;;;;;;;5.72;5.13;;;18.40;72.20;;;;;;5057785;28;20033;-66
2022/05/11 06:26:02;;;;;;;5.10;4.60;;;18.40;71.80;;;;;;5056690;28;20944;-66
2022/05/11 06:28:28;;;;;;;5.63;5.13;;;18.60;71.20;;;;;;5051537;28;20552;-66
2022/05/11 06:30:54;;;;;;;4.75;4.35;;;18.70;71.00;;;;;;5051557;28;20043;-66
2022/05/11 06:33:20;;;;;;;4.75;4.13;;;18.80;70.60;;;;;;5055606;28;20029;-66
2022/05/11 06:35:45;;;;;;;7.72;5.00;;;18.90;70.30;;;;;;5055302;28;20028;-66
2022/05/11 06:38:11;;;;;;;4.43;4.03;;;19.00;70.10;;;;;;5053981;28;20040;-66
2022/05/11 06:40:37;;;;;;;5.70;4.10;;;19.10;69.90;;;;;;5052086;28;20040;-67
2022/05/11 06:43:04;;;;;;;6.05;4.10;;;19.20;69.30;;;;;;5053250;28;20198;-66
2022/05/11 06:45:30;;;;;;;5.18;3.97;;;19.30;68.70;;;;;;5054669;28;20483;-67
2022/05/11 06:47:56;;;;;;;7.32;4.65;;;19.40;68.70;;;;;;5058405;28;20107;-66
2022/05/11 06:50:24;;;;;;;5.47;4.13;;;19.50;68.30;;;;;;5053581;28;20037;-65
2022/05/11 06:52:51;;;;;;;4.82;4.25;;;19.60;68.10;;;;;;5054061;28;20217;-66
2022/05/11 07:00:46;;;;;;;3.78;3.47;;;19.80;66.90;;;;;;5052515;28;20051;-64
2022/05/11 07:03:12;;;;;;;5.50;3.63;;;19.90;66.90;;;;;;5052727;28;20036;-65
2022/05/11 07:05:39;;;;;;;5.75;3.95;;;20.00;66.80;;;;;;5054452;28;20435;-65
2022/05/11 07:08:05;;;;;;;5.07;4.18;;;20.10;66.60;;;;;;5058498;28;20036;-66
2022/05/11 07:10:31;;;;;;;5.30;3.95;;;20.10;66.10;;;;;;5055342;28;20098;-66
2022/05/11 07:12:57;;;;;;;4.25;3.80;;;20.20;66.00;;;;;;5054753;28;20099;-66
2022/05/11 07:15:23;;;;;;;4.88;3.47;;;20.30;66.10;;;;;;5055794;28;20044;-66
2022/05/11 07:17:50;;;;;;;4.97;3.80;;;20.40;65.80;;;;;;5055357;28;20436;-67
2022/05/11 07:20:18;;;;;;;4.20;3.40;;;20.40;65.40;;;;;;5053219;28;20045;-66
2022/05/11 07:22:44;;;;;;;4.38;3.97;;;20.50;65.10;;;;;;5054554;28;20036;-65
2022/05/11 07:25:13;;;;;;;5.25;3.65;;;20.60;64.80;;;;;;5053789;28;20037;-65
2022/05/11 07:27:40;;;;;;;6.00;3.80;;;20.70;64.50;;;;;;5055277;28;20028;-65
2022/05/11 07:30:08;;;;;;;4.40;3.63;;;20.70;64.10;;;;;;5055995;28;20051;-65
2022/05/11 07:32:34;;;;;;;5.13;4.00;;;20.80;64.30;;;;;;5053519;28;20048;-66
2022/05/11 07:35:00;;;;;;;5.82;3.72;;;20.90;64.30;;;;;;5054655;28;20033;-66
2022/05/11 07:37:26;;;;;;;4.57;3.95;;;21.00;64.10;;;;;;5050915;28;20033;-66
2022/05/11 07:39:52;;;;;;;3.92;3.60;;;21.00;63.60;;;;;;5052508;28;20060;-66
2022/05/11 07:42:18;;;;;;;4.00;3.42;;;21.10;64.50;;;;;;5053918;28;20487;-65
2022/05/11 07:44:44;;;;;;;4.72;4.18;;;21.20;63.50;;;;;;5053064;28;20041;-65
2022/05/11 07:47:12;;;;;;;4.00;3.70;;;21.30;63.40;;;;;;5053259;28;20037;-65
2022/05/11 07:49:39;;;;;;;4.97;3.67;;;21.40;63.10;;;;;;5055081;28;20044;-66
2022/05/11 07:52:06;;;;;;;4.82;3.63;;;21.40;63.10;;;;;;5050738;28;20756;-66
2022/05/11 07:54:31;;;;;;;4.43;4.03;;;21.50;63.10;;;;;;5057908;28;20052;-65
2022/05/11 07:59:57;;;;;;;6.18;3.67;;;21.70;62.90;;;;;;5056786;28;20114;-65
2022/05/11 08:02:33;;;;;;;5.40;3.33;;;21.80;62.20;;;;;;5050036;28;20044;-65
2022/05/11 08:05:02;;;;;;;5.32;3.60;;;21.90;61.30;;;;;;5051258;28;20032;-66
2022/05/11 08:07:34;;;;;;;5.60;3.53;;;22.00;60.30;;;;;;5051773;28;20064;-65
2022/05/11 08:10:00;;;;;;;3.80;3.40;;;22.00;60.50;;;;;;5057651;28;20029;-66
2022/05/11 08:12:27;;;;;;;4.05;3.72;;;22.20;60.10;;;;;;5053669;28;20029;-66
2022/05/11 08:14:53;;;;;;;4.07;3.78;;;22.30;60.10;;;;;;5051760;28;20035;-66
2022/05/11 08:17:29;;;;;;;4.30;3.47;;;22.30;59.80;;;;;;5054815;28;20041;-64
2022/05/11 08:19:56;;;;;;;3.35;3.13;;;22.50;59.30;;;;;;5053032;28;20037;-66
2022/05/11 08:22:24;;;;;;;3.92;3.35;;;22.50;59.30;;;;;;5054131;28;20044;-66
2022/05/11 08:24:51;;;;;;;3.78;3.38;;;22.70;59.30;;;;;;5051806;28;20047;-65
2022/05/11 08:27:21;;;;;;;5.78;3.70;;;22.70;58.80;;;;;;5052482;28;20040;-65
2022/05/11 08:35:16;;;;;;;3.17;2.90;;;23.00;58.20;;;;;;5053977;28;20112;-65
2022/05/11 08:37:42;;;;;;;7.13;3.15;;;23.10;57.70;;;;;;5055750;28;20120;-65
2022/05/11 08:40:24;;;;;;;5.57;3.83;;;23.20;57.20;;;;;;5055232;28;20100;-66
2022/05/11 08:42:49;;;;;;;3.53;3.15;;;23.30;57.00;;;;;;5054021;28;20495;-66
2022/05/11 08:45:15;;;;;;;4.32;2.70;;;23.40;57.60;;;;;;5060587;28;20532;-66
2022/05/11 08:47:48;;;;;;;3.10;2.80;;;23.50;57.20;;;;;;5053156;28;20047;-65
2022/05/11 08:50:17;;;;;;;5.72;2.72;;;23.60;54.70;;;;;;5058241;28;20469;-66
2022/05/11 08:52:50;;;;;;;3.78;2.72;;;23.70;54.80;;;;;;5054745;28;20052;-65
2022/05/11 08:55:27;;;;;;;2.80;2.60;;;23.80;55.00;;;;;;5061401;28;20025;-65
2022/05/11 08:57:56;;;;;;;3.03;2.63;;;23.80;54.00;;;;;;5057964;28;20064;-66
2022/05/11 09:00:22;;;;;;;2.60;2.40;;;23.90;54.10;;;;;;5056822;28;20039;-66
2022/05/11 09:02:59;;;;;;;4.95;2.70;;;24.00;53.60;;;;;;5054959;28;20037;-65
2022/05/11 09:05:29;;;;;;;2.50;2.20;;;24.10;52.90;;;;;;5057480;28;20040;-66
2022/05/11 09:07:56;;;;;;;2.25;2.13;;;24.10;53.30;;;;;;5054226;28;20131;-65
2022/05/11 09:10:29;;;;;;;3.75;2.50;;;24.20;53.70;;;;;;5059300;28;20055;-65
2022/05/11 09:13:05;;;;;;;2.60;2.40;;;24.30;53.70;;;;;;5051704;28;20048;-66
2022/05/11 09:15:45;;;;;;;2.60;2.40;;;24.40;52.40;;;;;;5058114;28;20044;-66
2022/05/11 09:18:11;;;;;;;3.45;2.42;;;24.50;50.80;;;;;;5054254;28;20053;-66
2022/05/11 09:20:37;;;;;;;2.72;2.50;;;24.60;51.10;;;;;;5058660;28;20457;-66
2022/05/11 09:23:04;;;;;;;2.63;2.42;;;24.60;50.90;;;;;;5055571;28;20064;-66
2022/05/11 09:25:36;;;;;;;2.60;2.40;;;24.70;51.10;;;;;;5054791;28;20090;-66
2022/05/11 09:28:18;;;;;;;6.20;2.47;;;24.70;50.80;;;;;;5057088;28;20120;-66
2022/05/11 09:31:14;;;;;;;2.83;2.63;;;24.80;50.40;;;;;;5057690;28;20032;-65
2022/05/11 09:33:55;;;;;;;;;;;24.90;50.20;;;;;;5054943;28;20064;-65
2022/05/11 09:36:37;;;;;;;4.72;2.60;;;25.00;51.00;;;;;;5060105;28;19921;-66
2022/05/11 09:39:17;;;;;;;2.63;2.42;;;25.10;49.50;;;;;;5058998;28;20535;-65
2022/05/11 09:41:49;;;;;;;5.07;2.60;;;25.10;48.80;;;;;;5057257;28;20168;-66
2022/05/11 09:44:18;;;;;;;2.85;2.58;;;25.20;49.60;;;;;;5059332;28;20050;-66
2022/05/11 09:46:44;;;;;;;4.00;2.65;;;25.20;50.00;;;;;;5059503;28;20529;-66
2022/05/11 09:49:15;;;;;;;3.75;2.67;;;25.30;49.60;;;;;;5058273;28;20132;-66
2022/05/11 09:51:48;;;;;;;2.88;2.67;;;25.40;49.10;;;;;;5058346;28;20037;-66
2022/05/11 09:54:38;;;;;;;3.42;2.65;;;25.40;48.70;;;;;;5056671;28;20078;-66
2022/05/11 09:57:17;;;;;;;4.10;2.65;;;25.50;49.10;;;;;;5055024;28;21559;-65
2022/05/11 09:59:49;;;;;;;5.07;2.38;;;25.60;48.50;;;;;;5056895;28;20059;-65
2022/05/11 10:02:38;;;;;;;6.57;2.53;;;25.70;49.30;;;;;;5055817;28;20565;-67
2022/05/11 10:05:05;;;;;;;2.58;2.40;;;25.70;48.70;;;;;;5054139;28;20703;-65
2022/05/11 10:07:37;;;;;;;4.07;2.55;;;25.80;48.90;;;;;;5054791;28;20036;-66
2022/05/11 10:10:17;;;;;;;2.80;2.47;;;25.90;48.40;;;;;;5057463;28;20029;-66
2022/05/11 10:12:44;;;;;;;3.03;2.45;;;25.90;47.10;;;;;;5056001;28;20051;-67
2022/05/11 10:24:04;;;;;;;5.22;2.10;;;26.10;46.90;;;;;;5056420;28;20636;-66
2022/05/11 10:26:58;;;;;;;3.42;2.28;;;26.20;46.90;;;;;;5054162;28;20123;-67
2022/05/11 10:29:42;;;;;;;2.72;2.50;;;26.20;46.20;;;;;;5054605;28;20025;-67
2022/05/11 10:32:19;;;;;;;2.95;2.60;;;26.30;48.10;;;;;;5053442;28;20033;-67
2022/05/11 10:35:00;;;;;;;5.20;2.42;;;26.40;46.60;;;;;;5054960;28;20111;-67
2022/05/11 10:37:52;;;;;;;2.38;2.20;;;26.40;46.10;;;;;;5050419;28;20404;-67
2022/05/11 10:40:36;;;;;;;2.80;2.50;;;26.50;46.50;;;;;;5050734;28;20028;-66
2022/05/11 10:43:21;;;;;;;10.52;2.85;;;26.50;46.00;;;;;;5058993;28;20032;-66
2022/05/11 10:46:13;;;;;;;4.75;2.42;;;26.60;45.50;;;;;;5059025;28;20082;-66
2022/05/11 10:49:05;;;;;;;2.28;2.08;;;26.60;45.50;;;;;;5050570;28;20093;-66
2022/05/11 10:51:33;;;;;;;2.90;2.70;;;26.60;46.10;;;;;;5054535;28;20043;-66
2022/05/11 10:54:17;;;;;;;2.60;2.40;;;26.60;46.20;;;;;;5058100;28;20024;-66
2022/05/11 10:57:17;;;;;;;2.55;2.17;;;26.70;46.40;;;;;;5059731;28;20564;-67
2022/05/11 11:00:00;;;;;;;3.30;2.47;;;26.70;45.30;;;;;;5063134;28;20043;-67
2022/05/11 11:02:40;;;;;;;3.15;2.38;;;26.70;45.40;;;;;;5063281;28;20112;-65
2022/05/11 11:05:33;;;;;;;5.28;2.10;;;26.80;44.10;;;;;;5059022;28;20523;-66
2022/05/11 11:08:20;;;;;;;1.90;1.80;;;26.80;44.30;;;;;;5053500;28;20033;-65
2022/05/11 11:10:54;;;;;;;2.58;1.90;;;26.80;43.60;;;;;;5052710;28;20041;-66
2022/05/11 11:13:20;;;;;;;2.03;1.92;;;26.90;44.40;;;;;;5056291;28;20025;-66
2022/05/11 11:15:46;;;;;;;5.20;2.53;;;26.90;44.70;;;;;;5054134;28;20415;-66
2022/05/11 11:18:15;;;;;;;3.95;2.33;;;26.90;44.20;;;;;;5056849;28;20044;-67
2022/05/11 11:20:45;;;;;;;3.63;2.10;;;26.90;43.70;;;;;;5059235;28;20055;-66
2022/05/11 11:23:16;;;;;;;3.50;1.85;;;27.00;44.30;;;;;;5056715;28;20526;-66
2022/05/11 11:25:45;;;;;;;2.63;1.80;;;26.90;43.30;;;;;;5056107;28;20068;-66
2022/05/11 11:28:14;;;;;;;2.38;1.88;;;27.00;42.40;;;;;;5055900;28;20070;-67
2022/05/11 11:30:59;;;;;;;2.00;1.77;;;27.00;42.40;;;;;;5056332;28;20151;-66
2022/05/11 11:33:31;;;;;;;3.53;1.70;;;27.00;42.30;;;;;;5054921;28;20115;-66
2022/05/11 11:36:01;;;;;;;5.88;2.08;;;27.10;42.00;;;;;;5050366;28;20123;-66
2022/05/11 11:38:36;;;;;;;1.98;1.85;;;27.20;42.40;;;;;;5056122;28;20048;-66
2022/05/11 11:41:21;;;;;;;4.05;1.95;;;27.20;42.50;;;;;;5053488;28;20036;-67
2022/05/11 11:43:50;;;;;;;11.82;2.25;;;27.20;41.80;;;;;;5053206;28;20247;-65
2022/05/11 11:46:33;;;;;;;5.47;2.00;;;27.20;40.20;;;;;;5053243;28;20656;-65
2022/05/11 11:49:04;;;;;;;2.03;1.85;;;27.20;39.80;;;;;;5054007;28;20041;-66
2022/05/11 11:51:54;;;;;;;6.72;2.00;;;27.20;40.70;;;;;;5048184;28;20107;-65
2022/05/11 11:54:29;;;;;;;4.22;1.98;;;27.20;40.70;;;;;;5053895;28;20047;-66
2022/05/11 11:56:55;;;;;;;;;;;27.20;39.50;;;;;;5052657;28;20059;-66
2022/05/11 11:59:24;;;;;;;4.47;2.33;;;27.30;41.20;;;;;;5052387;28;20011;-66
2022/05/11 12:01:53;;;;;;;3.72;2.08;;;27.30;41.50;;;;;;5050606;28;20631;-66
2022/05/11 12:04:21;;;;;;;2.72;2.22;;;27.30;41.50;;;;;;5055127;28;20041;-65
2022/05/11 12:15:19;;;;;;;2.28;2.08;;;27.30;40.50;;;;;;5053815;28;20047;-66
2022/05/11 12:17:44;;;;;;;2.08;1.80;;;27.40;39.00;;;;;;5050284;28;20073;-64
2022/05/11 12:20:18;;;;;;;2.65;1.90;;;27.30;40.40;;;;;;5051510;28;20056;-66
2022/05/11 12:22:58;;;;;;;2.00;1.80;;;27.40;39.20;;;;;;5067922;28;20051;-65
2022/05/11 12:25:26;;;;;;;3.60;1.98;;;27.40;38.20;;;;;;5046330;28;20554;-66
2022/05/11 12:27:53;;;;;;;2.50;2.13;;;27.40;40.00;;;;;;5050949;28;20052;-66
2022/05/11 12:30:27;;;;;;;4.32;2.10;;;27.30;39.90;;;;;;5053320;28;20086;-66
2022/05/11 12:32:59;;;;;;;2.10;1.90;;;27.30;40.20;;;;;;5053536;28;20136;-65
2022/05/11 12:35:25;;;;;;;2.00;1.75;;;27.40;40.00;;;;;;5051680;28;20036;-66
2022/05/11 12:37:57;;;;;;;2.30;2.03;;;27.40;39.80;;;;;;5052132;28;20205;-66
2022/05/11 12:40:24;;;;;;;2.58;2.30;;;27.50;40.30;;;;;;5054095;28;20241;-66
2022/05/11 12:42:55;;;;;;;3.58;2.13;;;27.50;40.60;;;;;;5050379;28;20040;-66
2022/05/11 12:45:25;;;;;;;1.80;1.70;;;27.50;39.60;;;;;;5050088;28;21794;-66
2022/05/11 12:47:56;;;;;;;3.10;1.98;;;27.50;40.50;;;;;;5051129;28;20259;-66
2022/05/11 12:50:27;;;;;;;3.78;2.20;;;27.50;40.20;;;;;;5053187;28;20048;-65
2022/05/11 12:53:04;;;;;;;5.00;2.22;;;27.60;40.10;;;;;;5051731;28;20033;-66
2022/05/11 12:55:33;;;;;;;2.03;1.80;;;27.60;39.90;;;;;;5050794;28;20453;-65
2022/05/11 12:57:59;;;;;;;4.25;1.67;;;27.60;40.40;;;;;;5053647;28;20052;-66
2022/05/11 13:00:28;;;;;;;7.20;1.80;;;27.60;40.90;;;;;;5049914;28;20199;-67
2022/05/11 13:02:55;;;;;;;2.42;1.98;;;27.70;40.90;;;;;;5051867;28;20090;-66
2022/05/11 13:05:21;;;;;;;3.13;1.85;;;27.70;40.40;;;;;;5052375;28;20033;-65
2022/05/11 13:07:52;;;;;;;10.13;2.30;;;27.80;39.80;;;;;;5051445;28;20032;-66
2022/05/11 13:10:25;;;;;;;1.65;1.55;;;27.80;39.50;;;;;;5054646;28;20096;-65
2022/05/11 13:12:55;;;;;;;3.30;2.00;;;27.90;39.60;;;;;;5046707;28;20041;-65
2022/05/11 13:15:33;;;;;;;2.33;1.83;;;27.90;39.70;;;;;;5052281;28;20468;-66
2022/05/11 13:17:59;;;;;;;3.90;2.20;;;27.90;39.30;;;;;;5049365;28;20803;-65
2022/05/11 13:20:26;;;;;;;2.55;1.95;;;28.00;39.70;;;;;;5052621;28;20058;-66
2022/05/11 13:22:54;;;;;;;2.90;2.20;;;28.00;39.50;;;;;;5051631;28;20041;-67
2022/05/11 13:25:45;;;;;;;4.40;1.80;;;28.00;39.60;;;;;;5051980;28;20044;-66
2022/05/11 13:28:13;;;;;;;2.22;2.05;;;28.00;39.50;;;;;;5052479;28;20044;-66
2022/05/11 13:30:44;;;;;;;3.60;1.83;;;28.00;39.40;;;;;;5053158;28;20033;-66
2022/05/11 13:33:45;;;;;;;6.60;1.92;;;28.00;38.70;;;;;;5052203;28;20056;-66
2022/05/11 13:36:19;;;;;;;3.17;1.85;;;28.10;37.50;;;;;;5007310;28;20038;-66
2022/05/11 13:39:03;;;;;;;;;;;28.00;37.90;;;;;;5044983;28;20041;-66
2022/05/11 13:41:37;;;;;;;3.13;2.10;;;28.10;38.10;;;;;;5056607;28;20295;-66